Time;durP1;ratioP1;P1;durP2;ratioP2;P2;SDS_P1;SDS_P2;PMS_P1;PMS_P2;Temp;Humidity;BMP_temperature;BMP_pressure;BME280_temperature;BME280_humidity;BME280_pressure;Samples;Min_cycle;Max_cycle;Signal;HPM_P1;HPM_P2
2022/03/25 00:00:59;;;;;;;16.60;13.40;;;;;;-10255.62;;;;105919;1288;65614;-36
2022/03/25 00:03:26;;;;;;;16.80;13.80;;;;;;-10131.92;;;;105940;1288;65601;-35
2022/03/25 00:05:53;;;;;;;16.60;13.20;;;;;;-10255.62;;;;105902;1290;65734;-28
2022/03/25 00:08:20;;;;;;;17.00;14.10;;;;;;-10131.92;;;;105885;1290;65627;-29
2022/03/25 00:10:48;;;;;;;16.70;12.90;;;;;;-10255.62;;;;105895;1291;65808;-29
2022/03/25 00:13:15;;;;;;;16.80;13.30;;;;;;-10255.62;;;;105891;1291;65700;-29
2022/03/25 00:15:42;;;;;;;16.60;13.30;;;;;;-10255.62;;;;105937;1290;65629;-35
2022/03/25 00:18:09;;;;;;;15.50;12.60;;;;;;-10255.62;;;;105877;1287;65722;-36
2022/03/25 00:20:36;;;;;;;15.00;12.90;;;;;;-10131.92;;;;105907;1290;65703;-35
2022/03/25 00:23:04;;;;;;;15.40;12.90;;;;;;-10131.92;;;;105894;1288;65610;-36
2022/03/25 00:25:32;;;;;;;17.20;13.70;;;;;;-10255.62;;;;105949;1290;65616;-37
2022/03/25 00:27:59;;;;;;;17.60;13.70;;;;;;-10131.92;;;;105912;1288;65678;-37
2022/03/25 00:30:27;;;;;;;16.90;13.30;;;;;;-10131.92;;;;105894;1290;65601;-30
2022/03/25 00:32:54;;;;;;;16.90;13.50;;;;;;-10131.92;;;;105926;1288;65614;-29
2022/03/25 00:35:22;;;;;;;16.00;13.20;;;;;;-10379.31;;;;105884;1288;65887;-28
2022/03/25 00:37:49;;;;;;;17.90;14.60;;;;;;-10255.62;;;;105779;1288;65621;-29
2022/03/25 00:40:16;;;;;;;17.80;13.70;;;;;;-10255.62;;;;105929;1288;65594;-29
2022/03/25 00:42:44;;;;;;;16.70;13.00;;;;;;-10131.92;;;;105775;1290;65627;-29
2022/03/25 00:45:12;;;;;;;16.60;13.10;;;;;;-10255.62;;;;105886;1289;65812;-31
2022/03/25 00:47:39;;;;;;;16.50;13.70;;;;;;-10255.62;;;;105902;1288;65687;-29
2022/03/25 00:50:07;;;;;;;17.50;13.30;;;;;;-10379.31;;;;105901;1288;65744;-29
2022/03/25 00:52:35;;;;;;;17.40;14.10;;;;;;-10255.62;;;;105958;1289;65595;-36
2022/03/25 00:55:05;;;;;;;17.30;13.60;;;;;;-10131.92;;;;105898;1289;65703;-36
2022/03/25 00:57:32;;;;;;;16.40;13.30;;;;;;-10379.31;;;;105637;1293;65614;-28
2022/03/25 01:00:00;;;;;;;17.20;14.20;;;;;;-10379.31;;;;105898;1290;65815;-29
2022/03/25 01:02:27;;;;;;;17.10;13.20;;;;;;-10255.62;;;;105904;1290;65771;-37
2022/03/25 01:04:54;;;;;;;17.60;14.20;;;;;;-10255.62;;;;105932;1289;65787;-36
2022/03/25 01:07:21;;;;;;;16.30;13.60;;;;;;-10131.92;;;;105789;1290;65463;-36
2022/03/25 01:10:09;;;;;;;17.10;13.30;;;;;;-10255.62;;;;106097;1287;66705;-36
2022/03/25 01:12:36;;;;;;;17.80;13.70;;;;;;-10255.62;;;;106065;1286;65581;-36
2022/03/25 01:15:04;;;;;;;17.90;14.00;;;;;;-10131.92;;;;105944;1288;65695;-37
2022/03/25 01:17:32;;;;;;;16.20;13.50;;;;;;-10255.62;;;;105838;1291;65653;-34
2022/03/25 01:19:59;;;;;;;15.30;12.30;;;;;;-10131.92;;;;106070;1287;65881;-36
2022/03/25 01:25:19;;;;;;;18.00;14.20;;;;;;-10131.92;;;;105246;1293;65778;-30
2022/03/25 01:27:46;;;;;;;17.20;13.70;;;;;;-10379.31;;;;105447;1290;65927;-30
2022/03/25 01:33:06;;;;;;;16.00;13.70;;;;;;-10255.62;;;;105367;1290;65822;-29
2022/03/25 01:35:34;;;;;;;15.20;13.50;;;;;;-10008.22;;;;105422;1290;66534;-34
2022/03/25 01:46:22;;;;;;;15.30;13.00;;;;;;-10008.22;;;;105416;1293;65965;-36
2022/03/25 01:54:28;;;;;;;16.70;14.60;;;;;;-10255.62;;;;105400;1290;66017;-34
2022/03/25 01:59:55;;;;;;;16.00;13.40;;;;;;-10255.62;;;;105892;1287;65859;-42
2022/03/25 02:02:22;;;;;;;17.80;13.70;;;;;;-10255.62;;;;105988;1287;65618;-36
2022/03/25 02:04:49;;;;;;;17.50;13.80;;;;;;-10255.62;;;;106029;1287;65585;-36
2022/03/25 02:07:16;;;;;;;16.80;13.70;;;;;;-10379.31;;;;106124;1287;65591;-30
2022/03/25 02:09:44;;;;;;;16.40;13.70;;;;;;-10255.62;;;;106112;1287;66452;-29
2022/03/25 02:12:25;;;;;;;15.80;13.20;;;;;;-10503.01;;;;105153;1294;65770;-35
2022/03/25 02:14:52;;;;;;;15.80;14.10;;;;;;-10131.92;;;;105858;1287;65591;-35
2022/03/25 02:17:19;;;;;;;17.00;14.60;;;;;;-10131.92;;;;106056;1287;65694;-27
2022/03/25 02:20:27;;;;;;;18.30;14.90;;;;;;-10503.01;;;;106011;1287;65618;-28
2022/03/25 02:22:55;;;;;;;17.40;14.40;;;;;;-10255.62;;;;105713;1287;65814;-27
2022/03/25 02:25:23;;;;;;;15.70;13.70;;;;;;-10255.62;;;;106110;1287;65697;-28
2022/03/25 02:27:50;;;;;;;15.80;13.90;;;;;;-10255.62;;;;106116;1287;65600;-35
2022/03/25 02:30:18;;;;;;;15.00;13.10;;;;;;-10255.62;;;;105883;1288;65624;-35
2022/03/25 02:32:46;;;;;;;15.60;12.90;;;;;;-10131.92;;;;106107;1287;65590;-30
2022/03/25 02:44:15;;;;;;;17.00;14.20;;;;;;-10255.62;;;;106008;1287;65756;-29
2022/03/25 02:46:42;;;;;;;16.80;14.00;;;;;;-10131.92;;;;105953;1288;65640;-36
2022/03/25 02:49:09;;;;;;;16.10;13.80;;;;;;-10008.22;;;;106122;1287;65750;-36
2022/03/25 02:51:36;;;;;;;15.90;13.70;;;;;;-10255.62;;;;105912;1288;65733;-27
2022/03/25 02:54:03;;;;;;;16.30;13.70;;;;;;-10255.62;;;;106120;1287;65613;-29
2022/03/25 02:56:32;;;;;;;16.30;13.60;;;;;;-10008.22;;;;106097;1287;65757;-29
2022/03/25 02:58:59;;;;;;;17.20;14.30;;;;;;-10379.31;;;;106150;1287;66302;-29
2022/03/25 03:01:27;;;;;;;16.40;14.20;;;;;;-10131.92;;;;106116;1287;65647;-29
2022/03/25 03:03:54;;;;;;;17.20;14.00;;;;;;-10131.92;;;;106103;1287;65708;-28
2022/03/25 03:06:21;;;;;;;17.20;14.70;;;;;;-10255.62;;;;106123;1287;65605;-29
2022/03/25 03:08:48;;;;;;;18.10;13.70;;;;;;-10255.62;;;;105914;1288;65618;-31
2022/03/25 03:11:16;;;;;;;15.60;13.90;;;;;;-10503.01;;;;106129;1287;65621;-29
2022/03/25 03:13:44;;;;;;;15.70;13.40;;;;;;-10379.31;;;;106130;1287;65817;-29
2022/03/25 03:16:11;;;;;;;16.40;13.50;;;;;;-10131.92;;;;106106;1287;65723;-35
2022/03/25 03:18:39;;;;;;;17.50;14.00;;;;;;-10131.92;;;;106080;1287;65731;-36
2022/03/25 03:21:07;;;;;;;17.50;14.30;;;;;;-10131.92;;;;105933;1288;65633;-35
2022/03/25 03:23:34;;;;;;;16.80;13.20;;;;;;-10255.62;;;;106164;1287;65618;-36
2022/03/25 03:26:03;;;;;;;18.80;14.10;;;;;;-10379.31;;;;106121;1287;65585;-37
2022/03/25 03:28:30;;;;;;;16.20;13.40;;;;;;-10503.01;;;;106099;1287;65740;-37
2022/03/25 03:30:57;;;;;;;19.50;13.50;;;;;;-10008.22;;;;105833;1288;65614;-29
2022/03/25 03:33:24;;;;;;;16.20;13.30;;;;;;-10379.31;;;;105906;1288;65659;-41
2022/03/25 03:35:51;;;;;;;16.40;13.30;;;;;;-10131.92;;;;106145;1287;65701;-36
2022/03/25 03:38:18;;;;;;;15.50;12.90;;;;;;-10131.92;;;;105895;1288;65719;-38
2022/03/25 03:40:45;;;;;;;16.50;13.60;;;;;;-10131.92;;;;105879;1287;65580;-29
2022/03/25 03:43:13;;;;;;;17.10;12.80;;;;;;-10379.31;;;;105865;1288;65770;-30
2022/03/25 03:45:41;;;;;;;16.80;13.30;;;;;;-10255.62;;;;106093;1287;65584;-35
2022/03/25 03:48:08;;;;;;;15.20;12.80;;;;;;-10379.31;;;;106154;1287;65710;-35
2022/03/25 03:50:35;;;;;;;15.50;12.60;;;;;;-10131.92;;;;106083;1287;65755;-36
2022/03/25 03:53:03;;;;;;;14.80;13.00;;;;;;-10008.22;;;;106091;1286;65576;-36
2022/03/25 03:55:31;;;;;;;14.80;12.70;;;;;;-10379.31;;;;106089;1287;65637;-40
2022/03/25 03:57:58;;;;;;;17.20;12.80;;;;;;-10255.62;;;;106108;1287;65710;-45
2022/03/25 04:00:26;;;;;;;15.10;12.70;;;;;;-10131.92;;;;106138;1287;65611;-33
2022/03/25 04:02:54;;;;;;;15.30;12.60;;;;;;-10131.92;;;;106092;1287;65767;-36
2022/03/25 04:05:21;;;;;;;16.10;13.10;;;;;;-10503.01;;;;105874;1288;65604;-35
2022/03/25 04:07:49;;;;;;;16.00;13.00;;;;;;-10379.31;;;;106065;1287;65688;-29
2022/03/25 04:10:18;;;;;;;17.10;12.40;;;;;;-10008.22;;;;105855;1288;65742;-29
2022/03/25 04:12:46;;;;;;;16.10;12.80;;;;;;-10255.62;;;;106119;1288;65641;-36
2022/03/25 04:15:15;;;;;;;15.10;13.00;;;;;;-10131.92;;;;106089;1287;66022;-36
2022/03/25 04:17:45;;;;;;;15.10;13.00;;;;;;-10008.22;;;;106049;1287;65701;-36
2022/03/25 04:20:14;;;;;;;15.60;12.80;;;;;;-10255.62;;;;106072;1287;65591;-36
2022/03/25 04:22:46;;;;;;;16.90;13.30;;;;;;-10255.62;;;;105850;1287;65860;-29
2022/03/25 04:25:14;;;;;;;15.10;12.40;;;;;;-10008.22;;;;106134;1287;65607;-28
2022/03/25 04:27:58;;;;;;;15.30;12.80;;;;;;-10255.62;;;;105630;1289;339579;-35
2022/03/25 04:30:32;;;;;;;16.50;12.90;;;;;;-10255.62;;;;106137;1287;65695;-31
2022/03/25 04:32:59;;;;;;;;;;;;;;-10008.22;;;;106082;1288;65606;-30
2022/03/25 04:35:28;;;;;;;15.70;12.00;;;;;;-10131.92;;;;105746;1291;65623;-29
2022/03/25 04:37:56;;;;;;;14.40;12.30;;;;;;-10255.62;;;;105881;1288;66409;-29
2022/03/25 04:40:27;;;;;;;15.90;13.20;;;;;;-10379.31;;;;106101;1287;65613;-30
2022/03/25 04:42:57;;;;;;;15.20;13.00;;;;;;-10008.22;;;;106080;1287;65715;-29
2022/03/25 04:45:28;;;;;;;14.70;12.40;;;;;;-10131.92;;;;106084;1287;65696;-29
2022/03/25 04:47:56;;;;;;;14.70;12.50;;;;;;-10131.92;;;;106034;1287;65833;-37
2022/03/25 04:50:24;;;;;;;14.20;12.40;;;;;;-10255.62;;;;106093;1287;65607;-40
2022/03/25 04:52:54;;;;;;;14.70;11.90;;;;;;-10131.92;;;;106096;1287;65691;-36
2022/03/25 04:55:21;;;;;;;14.10;12.60;;;;;;-10255.62;;;;106089;1287;65731;-36
2022/03/25 04:57:49;;;;;;;14.80;12.80;;;;;;-10131.92;;;;106082;1287;65591;-38
2022/03/25 05:00:18;;;;;;;14.80;12.60;;;;;;-10255.62;;;;106087;1287;65594;-36
2022/03/25 05:02:48;;;;;;;16.50;12.30;;;;;;-10255.62;;;;106098;1287;66158;-27
2022/03/25 05:05:15;;;;;;;15.40;12.00;;;;;;-10379.31;;;;105897;1288;66333;-32
2022/03/25 05:07:45;;;;;;;14.90;11.30;;;;;;-10255.62;;;;105746;1290;65621;-28
2022/03/25 05:10:13;;;;;;;13.90;11.50;;;;;;-10008.22;;;;106080;1287;65608;-29
2022/03/25 05:12:42;;;;;;;14.10;11.50;;;;;;-10131.92;;;;105957;1288;65667;-29
2022/03/25 05:15:10;;;;;;;14.70;12.30;;;;;;-10131.92;;;;106130;1287;65600;-28
2022/03/25 05:17:51;;;;;;;15.50;12.00;;;;;;-10131.92;;;;106134;1287;65563;-36
2022/03/25 05:20:24;;;;;;;15.10;12.30;;;;;;-10255.62;;;;106099;1287;65756;-37
2022/03/25 05:22:51;;;;;;;;;;;;;;-10379.31;;;;105931;1288;65601;-38
2022/03/25 05:25:20;;;;;;;14.00;11.70;;;;;;-10131.92;;;;105726;1288;65741;-36
2022/03/25 05:27:57;;;;;;;14.50;11.70;;;;;;-10255.62;;;;106102;1287;65594;-27
2022/03/25 05:30:29;;;;;;;14.80;11.70;;;;;;-10131.92;;;;106131;1287;65719;-35
2022/03/25 05:32:57;;;;;;;15.00;11.80;;;;;;-10255.62;;;;106088;1287;65581;-29
2022/03/25 05:35:28;;;;;;;13.60;11.30;;;;;;-10255.62;;;;106112;1287;65588;-30
2022/03/25 05:37:56;;;;;;;14.10;11.90;;;;;;-10255.62;;;;106088;1287;66428;-36
2022/03/25 05:40:26;;;;;;;15.90;10.70;;;;;;-10131.92;;;;105817;1288;65758;-36
2022/03/25 05:42:54;;;;;;;13.60;11.10;;;;;;-10131.92;;;;106107;1287;65830;-28
2022/03/25 05:45:23;;;;;;;13.40;11.20;;;;;;-10131.92;;;;105799;1288;65812;-29
2022/03/25 05:47:50;;;;;;;14.60;11.50;;;;;;-10008.22;;;;106107;1287;65724;-36
2022/03/25 05:50:18;;;;;;;13.80;11.30;;;;;;-10131.92;;;;106098;1287;65652;-36
2022/03/25 05:52:46;;;;;;;13.00;11.00;;;;;;-10131.92;;;;106173;1287;66060;-37
2022/03/25 05:55:14;;;;;;;13.60;10.50;;;;;;-10255.62;;;;106111;1287;66961;-37
2022/03/25 05:57:41;;;;;;;13.50;11.20;;;;;;-10131.92;;;;106115;1287;65685;-36
2022/03/25 06:00:11;;;;;;;13.70;11.00;;;;;;-10131.92;;;;106092;1287;65599;-31
2022/03/25 06:02:38;;;;;;;13.10;11.50;;;;;;-10008.22;;;;106095;1287;66806;-39
2022/03/25 06:05:06;;;;;;;13.60;11.20;;;;;;-10255.62;;;;105909;1287;65759;-35
2022/03/25 06:07:40;;;;;;;13.30;10.70;;;;;;-10131.92;;;;106124;1287;65751;-29
2022/03/25 06:10:10;;;;;;;14.60;11.80;;;;;;-10255.62;;;;106129;1287;65817;-29
2022/03/25 06:12:39;;;;;;;13.40;11.20;;;;;;-10008.22;;;;106104;1287;65747;-28
2022/03/25 06:15:09;;;;;;;14.80;11.30;;;;;;-10255.62;;;;105861;1288;65679;-29
2022/03/25 06:17:53;;;;;;;13.00;10.80;;;;;;-10008.22;;;;105868;1287;65730;-29
2022/03/25 06:20:27;;;;;;;14.20;10.90;;;;;;-10008.22;;;;105906;1288;65769;-34
2022/03/25 06:22:56;;;;;;;14.70;11.30;;;;;;-10255.62;;;;106112;1287;65614;-30
2022/03/25 06:25:24;;;;;;;13.70;10.90;;;;;;-10008.22;;;;106121;1287;65605;-31
2022/03/25 06:27:55;;;;;;;14.20;11.40;;;;;;-10255.62;;;;105877;1287;65670;-38
2022/03/25 06:30:27;;;;;;;14.70;10.50;;;;;;-10255.62;;;;105962;1288;65739;-37
2022/03/25 06:32:55;;;;;;;14.00;11.70;;;;;;-10131.92;;;;106132;1287;67117;-30
2022/03/25 06:35:22;;;;;;;13.80;10.90;;;;;;-10255.62;;;;106098;1287;65752;-29
2022/03/25 06:37:52;;;;;;;13.80;10.70;;;;;;-10008.22;;;;106119;1287;65577;-29
2022/03/25 06:40:20;;;;;;;13.60;11.30;;;;;;-10008.22;;;;105857;1288;65608;-29
2022/03/25 06:42:49;;;;;;;13.90;11.60;;;;;;-10255.62;;;;105756;1287;65740;-30
2022/03/25 06:45:18;;;;;;;13.70;10.80;;;;;;-10008.22;;;;105843;1288;65731;-29
2022/03/25 06:47:46;;;;;;;14.40;11.00;;;;;;-10131.92;;;;106105;1287;65675;-35
2022/03/25 06:50:16;;;;;;;14.90;11.10;;;;;;-10255.62;;;;105897;1287;65601;-29
2022/03/25 06:52:45;;;;;;;15.80;11.80;;;;;;-10255.62;;;;105834;1288;65697;-32
2022/03/25 06:55:13;;;;;;;15.00;11.80;;;;;;-10379.31;;;;105947;1288;65727;-32
2022/03/25 06:57:41;;;;;;;14.40;11.40;;;;;;-10255.62;;;;106131;1287;65599;-32
2022/03/25 07:00:12;;;;;;;14.70;11.70;;;;;;-10255.62;;;;105999;1287;65723;-31
2022/03/25 07:02:41;;;;;;;15.60;12.10;;;;;;-10131.92;;;;105810;1288;65666;-28
2022/03/25 07:05:13;;;;;;;13.80;11.60;;;;;;-10131.92;;;;105886;1287;65584;-27
2022/03/25 07:07:42;;;;;;;15.30;11.10;;;;;;-10131.92;;;;106200;1287;65728;-26
2022/03/25 07:10:12;;;;;;;14.50;11.60;;;;;;-10131.92;;;;106138;1287;65659;-30
2022/03/25 07:12:43;;;;;;;14.50;11.30;;;;;;-10255.62;;;;106044;1287;65566;-29
2022/03/25 07:15:12;;;;;;;13.50;11.50;;;;;;-10008.22;;;;105913;1288;65611;-31
2022/03/25 07:17:43;;;;;;;13.30;11.00;;;;;;-10131.92;;;;105973;1287;65569;-31
2022/03/25 07:20:13;;;;;;;13.00;11.00;;;;;;-10255.62;;;;106063;1287;65847;-33
2022/03/25 07:22:46;;;;;;;15.30;11.90;;;;;;-10008.22;;;;106076;1287;66041;-31
2022/03/25 07:25:15;;;;;;;15.70;11.50;;;;;;-10131.92;;;;106058;1287;65728;-30
2022/03/25 07:27:44;;;;;;;14.70;10.80;;;;;;-10255.62;;;;106097;1287;65716;-31
2022/03/25 07:30:14;;;;;;;13.30;11.20;;;;;;-10255.62;;;;106070;1287;65728;-32
2022/03/25 07:32:42;;;;;;;13.90;10.70;;;;;;-10255.62;;;;105856;1288;65702;-27
2022/03/25 07:35:11;;;;;;;14.60;11.40;;;;;;-10008.22;;;;105890;1289;65637;-28
2022/03/25 07:37:40;;;;;;;14.00;10.70;;;;;;-10131.92;;;;105864;1288;65742;-30
2022/03/25 07:40:10;;;;;;;12.40;11.10;;;;;;-10255.62;;;;106078;1287;65567;-30
2022/03/25 07:42:42;;;;;;;12.70;10.70;;;;;;-10008.22;;;;105817;1288;65731;-31
2022/03/25 07:45:13;;;;;;;13.40;11.50;;;;;;-10255.62;;;;105856;1288;65774;-32
2022/03/25 07:47:49;;;;;;;13.90;11.70;;;;;;-10131.92;;;;105901;1288;65621;-29
2022/03/25 07:50:23;;;;;;;13.70;11.10;;;;;;-10255.62;;;;105748;1289;65742;-30
2022/03/25 07:52:52;;;;;;;13.10;11.20;;;;;;-10255.62;;;;105789;1291;65693;-28
2022/03/25 07:55:20;;;;;;;14.80;11.50;;;;;;-10131.92;;;;106069;1287;65696;-29
2022/03/25 07:57:49;;;;;;;14.90;11.60;;;;;;-10255.62;;;;105934;1288;65594;-32
2022/03/25 08:00:18;;;;;;;13.60;10.70;;;;;;-10255.62;;;;106021;1288;65748;-31
2022/03/25 08:02:49;;;;;;;14.80;10.50;;;;;;-10131.92;;;;106009;1287;65706;-33
2022/03/25 08:05:16;;;;;;;13.60;10.20;;;;;;-10008.22;;;;105637;1288;65729;-33
2022/03/25 08:07:49;;;;;;;12.90;10.70;;;;;;-10255.62;;;;105998;1287;65586;-29
2022/03/25 08:10:19;;;;;;;15.20;12.60;;;;;;-10131.92;;;;105914;1288;65819;-33
2022/03/25 08:12:46;;;;;;;15.00;10.90;;;;;;-10255.62;;;;105880;1288;65828;-29
2022/03/25 08:15:14;;;;;;;14.00;10.60;;;;;;-10008.22;;;;106012;1287;65825;-27
2022/03/25 08:17:52;;;;;;;12.10;10.00;;;;;;-10255.62;;;;105923;1287;65628;-29
2022/03/25 08:20:22;;;;;;;15.40;11.00;;;;;;-10379.31;;;;106016;1287;65704;-30
2022/03/25 08:22:49;;;;;;;13.30;10.40;;;;;;-10255.62;;;;105985;1287;65603;-27
2022/03/25 08:28:03;;;;;;;15.60;11.40;;;;;;-10255.62;;;;105868;1288;65717;-35
2022/03/25 08:30:32;;;;;;;14.60;11.00;;;;;;-10131.92;;;;105875;1287;65780;-30
2022/03/25 08:33:02;;;;;;;13.90;10.70;;;;;;-10379.31;;;;105954;1287;65618;-34
2022/03/25 08:35:29;;;;;;;12.40;9.70;;;;;;-10131.92;;;;105855;1288;65841;-33
2022/03/25 08:37:58;;;;;;;12.40;9.90;;;;;;-10008.22;;;;105748;1288;65713;-36
2022/03/25 08:40:29;;;;;;;11.50;9.40;;;;;;-10131.92;;;;105767;1288;65718;-31
2022/03/25 08:42:56;;;;;;;12.60;10.10;;;;;;-10503.01;;;;105818;1288;65580;-32
2022/03/25 08:45:25;;;;;;;13.10;10.00;;;;;;-10503.01;;;;105869;1288;66084;-33
2022/03/25 08:47:52;;;;;;;13.10;10.20;;;;;;-10131.92;;;;105858;1288;65639;-32
2022/03/25 08:50:22;;;;;;;13.70;9.70;;;;;;-10131.92;;;;105774;1288;66961;-33
2022/03/25 08:52:50;;;;;;;15.40;9.80;;;;;;-10008.22;;;;105920;1288;65611;-28
2022/03/25 08:55:20;;;;;;;13.50;10.50;;;;;;-10131.92;;;;105919;1288;65551;-27
2022/03/25 08:57:49;;;;;;;11.40;9.20;;;;;;-10379.31;;;;105739;1288;65703;-28
2022/03/25 09:00:19;;;;;;;11.40;9.00;;;;;;-10255.62;;;;106087;1287;65591;-29
2022/03/25 09:02:49;;;;;;;12.80;10.20;;;;;;-10255.62;;;;105986;1288;66460;-28
2022/03/25 09:05:17;;;;;;;12.00;9.40;;;;;;-10255.62;;;;105891;1288;65626;-29
2022/03/25 09:07:44;;;;;;;13.10;9.60;;;;;;-10255.62;;;;105901;1288;65783;-34
2022/03/25 09:10:16;;;;;;;13.10;10.80;;;;;;-10379.31;;;;106005;1287;65583;-27
2022/03/25 09:12:45;;;;;;;14.80;10.60;;;;;;-10255.62;;;;105942;1287;65730;-35
2022/03/25 09:15:14;;;;;;;11.60;9.30;;;;;;-10255.62;;;;105955;1287;65732;-33
2022/03/25 09:17:44;;;;;;;13.40;10.40;;;;;;-10255.62;;;;106099;1287;65691;-32
2022/03/25 09:20:14;;;;;;;12.70;10.20;;;;;;-10008.22;;;;106002;1287;65717;-28
2022/03/25 09:22:46;;;;;;;13.50;10.10;;;;;;-10131.92;;;;105996;1287;65610;-30
2022/03/25 09:25:23;;;;;;;14.10;10.90;;;;;;-10131.92;;;;105952;1288;65639;-29
2022/03/25 09:27:50;;;;;;;14.60;10.70;;;;;;-10131.92;;;;105910;1287;65730;-29
2022/03/25 09:30:18;;;;;;;11.10;8.60;;;;;;-10131.92;;;;105780;1288;65840;-30
2022/03/25 09:32:45;;;;;;;12.10;9.10;;;;;;-10131.92;;;;105979;1288;65733;-32
2022/03/25 09:35:13;;;;;;;12.70;8.60;;;;;;-10131.92;;;;105865;1287;65745;-32
2022/03/25 09:37:47;;;;;;;10.20;7.80;;;;;;-10131.92;;;;105916;1288;65700;-33
2022/03/25 09:40:18;;;;;;;11.00;8.60;;;;;;-10008.22;;;;105895;1288;66459;-33
2022/03/25 09:42:46;;;;;;;10.80;8.10;;;;;;-10131.92;;;;105847;1288;65655;-31
2022/03/25 09:45:18;;;;;;;10.60;8.10;;;;;;-10131.92;;;;105926;1288;65604;-31
2022/03/25 09:47:48;;;;;;;10.20;8.50;;;;;;-10008.22;;;;105890;1287;65570;-30
2022/03/25 09:50:21;;;;;;;10.50;8.20;;;;;;-10379.31;;;;106012;1287;65661;-29
2022/03/25 09:52:50;;;;;;;11.00;8.40;;;;;;-10131.92;;;;105732;1287;66695;-29
2022/03/25 09:55:18;;;;;;;10.70;8.20;;;;;;-10255.62;;;;107627;1286;63970;-28
2022/03/25 09:57:46;;;;;;;9.50;7.70;;;;;;-10255.62;;;;107466;1287;63708;-33
2022/03/25 10:00:18;;;;;;;10.10;8.00;;;;;;-10008.22;;;;107491;1287;63499;-32
2022/03/25 10:02:47;;;;;;;10.00;7.20;;;;;;-10255.62;;;;106147;1287;65707;-31
2022/03/25 10:05:20;;;;;;;9.10;8.00;;;;;;-10008.22;;;;105832;1289;65647;-30
2022/03/25 10:07:51;;;;;;;10.10;7.40;;;;;;-10255.62;;;;106006;1287;65603;-30
2022/03/25 10:10:22;;;;;;;9.10;7.90;;;;;;-10131.92;;;;105811;1288;65731;-30
2022/03/25 10:12:58;;;;;;;8.70;7.80;;;;;;-10255.62;;;;105908;1288;65687;-29
2022/03/25 10:15:29;;;;;;;10.60;7.70;;;;;;-10008.22;;;;105912;1288;65610;-29
2022/03/25 10:18:01;;;;;;;10.50;8.00;;;;;;-10255.62;;;;105981;1287;65614;-27
2022/03/25 10:20:39;;;;;;;9.80;8.00;;;;;;-10008.22;;;;106019;1287;65627;-28
2022/03/25 10:23:13;;;;;;;10.20;7.70;;;;;;-10131.92;;;;105883;1287;65575;-31
2022/03/25 10:25:49;;;;;;;9.10;7.60;;;;;;-10131.92;;;;105969;1287;65738;-27
2022/03/25 10:28:29;;;;;;;9.10;7.10;;;;;;-10255.62;;;;105898;1288;65795;-30
2022/03/25 10:31:02;;;;;;;9.70;7.70;;;;;;-10131.92;;;;105889;1287;65615;-29
2022/03/25 10:34:00;;;;;;;9.00;7.30;;;;;;-10008.22;;;;105814;1288;65860;-28
2022/03/25 10:36:27;;;;;;;8.90;7.40;;;;;;-10131.92;;;;105976;1287;65710;-32
2022/03/25 10:39:01;;;;;;;9.60;7.40;;;;;;-10255.62;;;;105878;1288;65763;-32
2022/03/25 10:41:42;;;;;;;8.70;6.90;;;;;;-10255.62;;;;105943;1288;65725;-32
2022/03/25 10:44:10;;;;;;;8.90;7.50;;;;;;-10379.31;;;;105874;1288;67407;-34
2022/03/25 10:46:43;;;;;;;9.70;7.20;;;;;;-10131.92;;;;106028;1287;65581;-28
2022/03/25 10:49:19;;;;;;;8.60;7.10;;;;;;-10008.22;;;;105926;1287;65621;-30
2022/03/25 10:51:56;;;;;;;8.40;7.10;;;;;;-10131.92;;;;105801;1288;65751;-38
2022/03/25 10:54:26;;;;;;;10.30;7.10;;;;;;-10255.62;;;;106131;1287;65600;-34
2022/03/25 10:56:57;;;;;;;9.90;6.60;;;;;;-10255.62;;;;105950;1288;67461;-35
2022/03/25 10:59:31;;;;;;;9.00;6.70;;;;;;-10131.92;;;;105922;1288;65680;-38
2022/03/25 11:02:05;;;;;;;8.50;6.60;;;;;;-10255.62;;;;105913;1287;65742;-34
2022/03/25 11:04:32;;;;;;;8.10;6.70;;;;;;-10255.62;;;;105762;1288;65806;-31
2022/03/25 11:07:04;;;;;;;8.40;6.60;;;;;;-10131.92;;;;105804;1288;65512;-32
2022/03/25 11:09:31;;;;;;;9.20;7.40;;;;;;-10131.92;;;;106009;1287;65780;-39
2022/03/25 11:12:00;;;;;;;8.90;7.20;;;;;;-10008.22;;;;105825;1288;65700;-28
2022/03/25 11:14:27;;;;;;;8.20;6.80;;;;;;-10008.22;;;;105880;1288;65595;-28
2022/03/25 11:16:58;;;;;;;8.30;6.70;;;;;;-10379.31;;;;105879;1287;65809;-31
2022/03/25 11:19:26;;;;;;;9.00;7.00;;;;;;-10255.62;;;;105913;1287;65728;-32
2022/03/25 11:21:54;;;;;;;9.10;6.90;;;;;;-10379.31;;;;105946;1288;65592;-33
2022/03/25 11:24:40;;;;;;;7.90;6.50;;;;;;-10503.01;;;;105911;1288;65713;-37
2022/03/25 11:27:20;;;;;;;9.00;6.80;;;;;;-10255.62;;;;105948;1287;66698;-32
2022/03/25 11:29:52;;;;;;;8.60;6.30;;;;;;-10131.92;;;;105974;1287;65737;-33
2022/03/25 11:32:20;;;;;;;7.80;6.50;;;;;;-10131.92;;;;105911;1288;65709;-29
2022/03/25 11:34:56;;;;;;;9.10;6.70;;;;;;-10008.22;;;;105856;1288;65711;-29
2022/03/25 11:37:26;;;;;;;8.50;6.90;;;;;;-10131.92;;;;105972;1287;65700;-32
2022/03/25 11:40:28;;;;;;;8.90;7.20;;;;;;-10255.62;;;;105797;1288;65677;-33
2022/03/25 11:42:58;;;;;;;9.10;7.00;;;;;;-10131.92;;;;105754;1288;65705;-33
2022/03/25 11:45:35;;;;;;;9.50;6.40;;;;;;-10131.92;;;;106036;1287;65722;-33
2022/03/25 11:48:06;;;;;;;10.90;6.90;;;;;;-10131.92;;;;105804;1288;66962;-33
2022/03/25 11:50:44;;;;;;;8.40;6.80;;;;;;-10131.92;;;;105709;1288;65618;-33
2022/03/25 11:53:11;;;;;;;8.00;6.30;;;;;;-10008.22;;;;105768;1288;65711;-34
2022/03/25 11:56:15;;;;;;;7.80;6.60;;;;;;-10008.22;;;;105749;1288;65722;-30
2022/03/25 11:59:01;;;;;;;9.50;7.10;;;;;;-10008.22;;;;105879;1288;65733;-30
2022/03/25 12:01:32;;;;;;;8.70;6.30;;;;;;-10255.62;;;;105942;1287;66687;-29
2022/03/25 12:04:00;;;;;;;8.20;6.60;;;;;;-10131.92;;;;105933;1287;65603;-29
2022/03/25 12:06:57;;;;;;;8.30;6.50;;;;;;-10008.22;;;;105884;1288;65631;-30
2022/03/25 12:09:34;;;;;;;7.80;7.00;;;;;;-10131.92;;;;106032;1287;65735;-38
2022/03/25 12:12:03;;;;;;;7.90;6.80;;;;;;-10131.92;;;;106024;1287;65720;-32
2022/03/25 12:14:36;;;;;;;8.90;6.80;;;;;;-10131.92;;;;106010;1287;65745;-32
2022/03/25 12:17:08;;;;;;;8.10;6.20;;;;;;-10131.92;;;;105771;1288;65851;-29
2022/03/25 12:19:39;;;;;;;8.00;6.60;;;;;;-10255.62;;;;105827;1288;65706;-29
2022/03/25 12:22:26;;;;;;;9.70;6.70;;;;;;-10131.92;;;;105926;1287;65609;-31
2022/03/25 12:25:14;;;;;;;8.80;5.90;;;;;;-10008.22;;;;105927;1288;65742;-29
2022/03/25 12:27:42;;;;;;;9.60;6.70;;;;;;-10255.62;;;;105754;1287;302759;-29
2022/03/25 12:30:10;;;;;;;8.40;6.40;;;;;;-10008.22;;;;105982;1287;65563;-28
2022/03/25 12:32:38;;;;;;;8.70;6.80;;;;;;-10131.92;;;;105912;1288;65751;-32
2022/03/25 12:35:13;;;;;;;8.70;7.00;;;;;;-10255.62;;;;105890;1288;65725;-33
2022/03/25 12:37:59;;;;;;;7.60;6.40;;;;;;-10131.92;;;;106027;1287;66422;-34
2022/03/25 12:40:34;;;;;;;7.50;6.50;;;;;;-10008.22;;;;105886;1288;67076;-32
2022/03/25 12:43:11;;;;;;;8.40;6.50;;;;;;-10008.22;;;;105849;1288;65658;-29
2022/03/25 12:45:45;;;;;;;8.30;6.20;;;;;;-10008.22;;;;105972;1287;65608;-29
2022/03/25 12:48:25;;;;;;;8.10;6.90;;;;;;-10131.92;;;;105894;1288;65649;-30
2022/03/25 12:50:56;;;;;;;8.10;6.40;;;;;;-10255.62;;;;105923;1287;65601;-33
2022/03/25 12:53:28;;;;;;;8.00;6.70;;;;;;-10379.31;;;;105945;1287;65738;-33
2022/03/25 12:55:57;;;;;;;8.30;6.50;;;;;;-10255.62;;;;105766;1288;65716;-32
2022/03/25 12:58:24;;;;;;;8.30;6.00;;;;;;-10255.62;;;;105918;1288;65633;-33
2022/03/25 13:00:54;;;;;;;8.40;6.30;;;;;;-10255.62;;;;105745;1290;65812;-29
2022/03/25 13:03:23;;;;;;;8.60;6.60;;;;;;-10008.22;;;;105933;1287;65722;-35
2022/03/25 13:05:51;;;;;;;8.80;6.40;;;;;;-10131.92;;;;105627;1290;65665;-32
2022/03/25 13:08:18;;;;;;;8.00;6.70;;;;;;-10379.31;;;;105865;1288;65796;-33
2022/03/25 13:10:46;;;;;;;8.00;6.60;;;;;;-10008.22;;;;105821;1288;65764;-33
2022/03/25 13:13:16;;;;;;;8.70;6.80;;;;;;-10131.92;;;;105878;1288;65713;-33
2022/03/25 13:15:45;;;;;;;8.90;6.20;;;;;;-10255.62;;;;105816;1288;66893;-31
2022/03/25 13:18:15;;;;;;;9.10;6.10;;;;;;-10131.92;;;;105951;1288;65755;-34
2022/03/25 13:20:45;;;;;;;8.20;5.80;;;;;;-10131.92;;;;105942;1288;65744;-30
2022/03/25 13:23:16;;;;;;;8.10;5.60;;;;;;-10131.92;;;;105861;1288;65630;-29